Map

Track Data

SID SEASON NUMBER BASIN SUBBASIN NAME ISO_TIME NATURE LAT LON WMO_WIND WMO_PRES WMO_AGENCY TRACK_TYPE DIST2LAND LANDFALL IFLAG USA_AGENCY USA_ATCF_ID USA_LAT USA_LON USA_RECORD USA_STATUS USA_WIND USA_PRES USA_SSHS USA_R34_NE USA_R34_SE USA_R34_SW USA_R34_NW USA_R50_NE USA_R50_SE USA_R50_SW USA_R50_NW USA_R64_NE USA_R64_SE USA_R64_SW USA_R64_NW USA_POCI USA_ROCI USA_RMW USA_EYE TOKYO_LAT TOKYO_LON TOKYO_GRADE TOKYO_WIND TOKYO_PRES TOKYO_R50_DIR TOKYO_R50_LONG TOKYO_R50_SHORT TOKYO_R30_DIR TOKYO_R30_LONG TOKYO_R30_SHORT TOKYO_LAND CMA_LAT CMA_LON CMA_CAT CMA_WIND CMA_PRES HKO_LAT HKO_LON HKO_CAT HKO_WIND HKO_PRES NEWDELHI_LAT NEWDELHI_LON NEWDELHI_GRADE NEWDELHI_WIND NEWDELHI_PRES NEWDELHI_CI NEWDELHI_DP NEWDELHI_POCI REUNION_LAT REUNION_LON REUNION_TYPE REUNION_WIND REUNION_PRES REUNION_TNUM REUNION_CI REUNION_RMW REUNION_R34_NE REUNION_R34_SE REUNION_R34_SW REUNION_R34_NW REUNION_R50_NE REUNION_R50_SE REUNION_R50_SW REUNION_R50_NW REUNION_R64_NE REUNION_R64_SE REUNION_R64_SW REUNION_R64_NW BOM_LAT BOM_LON BOM_TYPE BOM_WIND BOM_PRES BOM_TNUM BOM_CI BOM_RMW BOM_R34_NE BOM_R34_SE BOM_R34_SW BOM_R34_NW BOM_R50_NE BOM_R50_SE BOM_R50_SW BOM_R50_NW BOM_R64_NE BOM_R64_SE BOM_R64_SW BOM_R64_NW BOM_ROCI BOM_POCI BOM_EYE BOM_POS_METHOD BOM_PRES_METHOD NADI_LAT NADI_LON NADI_CAT NADI_WIND NADI_PRES WELLINGTON_LAT WELLINGTON_LON WELLINGTON_WIND WELLINGTON_PRES DS824_LAT DS824_LON DS824_STAGE DS824_WIND DS824_PRES TD9636_LAT TD9636_LON TD9636_STAGE TD9636_WIND TD9636_PRES TD9635_LAT TD9635_LON TD9635_WIND TD9635_PRES TD9635_ROCI NEUMANN_LAT NEUMANN_LON NEUMANN_CLASS NEUMANN_WIND NEUMANN_PRES MLC_LAT MLC_LON MLC_CLASS MLC_WIND MLC_PRES USA_GUST BOM_GUST BOM_GUST_PER REUNION_GUST REUNION_GUST_PER USA_SEAHGT USA_SEARAD_NE USA_SEARAD_SE USA_SEARAD_SW USA_SEARAD_NW STORM_SPEED STORM_DIR
1912200N12126 1912 30 WP MM NOT_NAMED 1912-07-17 16:00:00 NR 12.0000 126.300 main 89 58 __________O___ -1 12.0000 126.300 7 10 273
1912200N12126 1912 30 WP MM NOT_NAMED 1912-07-17 18:00:00 NR 12.0194 125.971 main 58 10 __________P___ -1 12.0194 125.971 7 10 275
1912200N12126 1912 30 WP MM NOT_NAMED 1912-07-17 21:00:00 NR 12.0660 125.470 main 10 0 __________P___ -1 12.0660 125.470 7 10 278
1912200N12126 1912 30 WP MM NOT_NAMED 1912-07-18 00:00:00 NR 12.1581 124.949 main 0 0 __________P___ -1 12.1581 124.949 7 11 284
1912200N12126 1912 30 WP MM NOT_NAMED 1912-07-18 03:00:00 NR 12.3237 124.394 main 0 0 __________P___ -1 12.3237 124.394 7 12 288
1912200N12126 1912 30 WP MM NOT_NAMED 1912-07-18 04:00:00 NR 12.4000 124.200 main 15 0 __________O___ -1 12.4000 124.200 7 13 294
1912200N12126 1912 30 WP MM NOT_NAMED 1912-07-18 06:00:00 NR 12.5878 123.796 main 11 10 __________P___ -1 12.5878 123.796 7 14 298
1912200N12126 1912 30 WP MM NOT_NAMED 1912-07-18 09:00:00 NR 12.9449 123.164 main 15 0 __________P___ -1 12.9449 123.164 7 15 302
1912200N12126 1912 30 WP MM NOT_NAMED 1912-07-18 12:00:00 NR 13.3701 122.524 main 0 0 __________P___ -1 13.3701 122.524 7 15 306
1912200N12126 1912 30 WP MM NOT_NAMED 1912-07-18 15:00:00 NR 13.8385 121.900 main 15 0 __________P___ -1 13.8385 121.900 7 15 308
1912200N12126 1912 30 WP MM NOT_NAMED 1912-07-18 16:00:00 NR 14.0000 121.700 main 0 0 __________O___ -1 14.0000 121.700 7 16 311
1912200N12126 1912 30 WP MM NOT_NAMED 1912-07-18 18:00:00 NR 14.3419 121.294 main 0 0 __________P___ -1 14.3419 121.294 7 16 313
1912200N12126 1912 30 WP MM NOT_NAMED 1912-07-18 21:00:00 NR 14.8809 120.709 main 0 0 __________P___ -1 14.8809 120.709 7 15 315
1912200N12126 1912 30 WP MM NOT_NAMED 1912-07-19 00:00:00 NR 15.4066 120.177 main 0 0 __________P___ -1 15.4066 120.177 7 14 316
1912200N12126 1912 30 WP MM NOT_NAMED 1912-07-19 03:00:00 NR 15.8687 119.727 main 10 10 __________P___ -1 15.8687 119.727 7 12 317
1912200N12126 1912 30 WP MM NOT_NAMED 1912-07-19 04:00:00 NR 16.0000 119.600 main 10 10 __________O___ -1 16.0000 119.600 7 9 315
1912200N12126 1912 30 WP MM NOT_NAMED 1912-07-19 06:00:00 NR 16.2012 119.389 main 39 39 __________P___ -1 16.2012 119.389 7 7 315
1912200N12126 1912 30 WP MM NOT_NAMED 1912-07-19 09:00:00 NR 16.4279 119.155 main 65 75 __________P___ -1 16.4279 119.155 7 6 316
1912200N12126 1912 30 WP MM NOT_NAMED 1912-07-19 12:00:00 NR 16.5977 118.987 main 91 91 __________P___ -1 16.5977 118.987 7 4 317
1912200N12126 1912 30 WP MM NOT_NAMED 1912-07-19 15:00:00 NR 16.7479 118.847 main 115 120 __________P___ -1 16.7479 118.847 7 4 319
1912200N12126 1912 30 WP MM NOT_NAMED 1912-07-19 16:00:00 NR 16.8000 118.800 main 120 120 __________O___ -1 16.8000 118.800 7 5 320
1912200N12126 1912 30 WP MM NOT_NAMED 1912-07-19 18:00:00 NR 16.9438 118.678 main 135 140 __________P___ -1 16.9438 118.678 7 6 321
1912200N12126 1912 30 WP MM NOT_NAMED 1912-07-19 21:00:00 NR 17.1597 118.500 main 171 171 __________P___ -1 17.1597 118.500 7 5 322
1912200N12126 1912 30 WP MM NOT_NAMED 1912-07-20 00:00:00 NR 17.3648 118.328 main 201 201 __________P___ -1 17.3648 118.328 7 5 320
1912200N12126 1912 30 WP MM NOT_NAMED 1912-07-20 03:00:00 NR 17.5467 118.157 main 216 232 __________P___ -1 17.5467 118.157 7 5 317
1912200N12126 1912 30 WP MM NOT_NAMED 1912-07-20 04:00:00 NR 17.6000 118.100 main 232 232 __________O___ -1 17.6000 118.100 7 4 310
1912200N12126 1912 30 WP MM NOT_NAMED 1912-07-20 06:00:00 NR 17.6868 117.986 main 244 244 __________P___ -1 17.6868 117.986 7 4 305
1912200N12126 1912 30 WP MM NOT_NAMED 1912-07-20 09:00:00 NR 17.7918 117.815 main 265 265 __________P___ -1 17.7918 117.815 7 4 300
1912200N12126 1912 30 WP MM NOT_NAMED 1912-07-20 12:00:00 NR 17.8804 117.641 main 287 287 __________P___ -1 17.8804 117.641 7 4 298
1912200N12126 1912 30 WP MM NOT_NAMED 1912-07-20 15:00:00 NR 17.9682 117.462 main 299 299 __________P___ -1 17.9682 117.462 7 4 297
1912200N12126 1912 30 WP MM NOT_NAMED 1912-07-20 16:00:00 NR 18.0000 117.400 main 310 310 __________O___ -1 18.0000 117.400 7 4 301
1912200N12126 1912 30 WP MM NOT_NAMED 1912-07-20 18:00:00 NR 18.0803 117.262 main 322 322 __________P___ -1 18.0803 117.262 7 5 302
1912200N12126 1912 30 WP MM NOT_NAMED 1912-07-20 21:00:00 NR 18.2071 117.048 main 355 355 __________P___ -1 18.2071 117.048 7 5 303
1912200N12126 1912 30 WP MM NOT_NAMED 1912-07-21 00:00:00 NR 18.3359 116.841 main 378 378 __________P___ -1 18.3359 116.841 7 5 304
1912200N12126 1912 30 WP MM NOT_NAMED 1912-07-21 03:00:00 NR 18.4605 116.655 main 393 403 __________P___ -1 18.4605 116.655 7 4 306
1912200N12126 1912 30 WP MM NOT_NAMED 1912-07-21 04:00:00 NR 18.5000 116.600 main 403 403 __________O___ -1 18.5000 116.600 7 3 309
1912200N12126 1912 30 WP MM NOT_NAMED 1912-07-21 06:00:00 NR 18.5696 116.518 main 416 416 __________P___ -1 18.5696 116.518 7 3 315
1912200N12126 1912 30 WP MM NOT_NAMED 1912-07-21 09:00:00 NR 18.6678 116.421 main 430 430 __________P___ -1 18.6678 116.421 7 3 319
1912200N12126 1912 30 WP MM NOT_NAMED 1912-07-21 12:00:00 NR 18.7640 116.335 main 438 424 __________P___ -1 18.7640 116.335 7 3 319
1912200N12126 1912 30 WP MM NOT_NAMED 1912-07-21 15:00:00 NR 18.8645 116.238 main 424 424 __________P___ -1 18.8645 116.238 7 3 317
1912200N12126 1912 30 WP MM NOT_NAMED 1912-07-21 16:00:00 NR 18.9000 116.200 main 424 410 __________O___ -1 18.9000 116.200 7 3 315
1912200N12126 1912 30 WP MM NOT_NAMED 1912-07-21 18:00:00 NR 18.9855 116.108 main 410 397 __________P___ -1 18.9855 116.108 7 4 313
1912200N12126 1912 30 WP MM NOT_NAMED 1912-07-21 21:00:00 NR 19.1201 115.952 main 397 369 __________P___ -1 19.1201 115.952 7 4 310
1912200N12126 1912 30 WP MM NOT_NAMED 1912-07-22 00:00:00 NR 19.2515 115.773 main 369 351 __________P___ -1 19.2515 115.773 7 4 305
1912200N12126 1912 30 WP MM NOT_NAMED 1912-07-22 03:00:00 NR 19.3671 115.572 main 351 347 __________P___ -1 19.3671 115.572 7 4 300
1912200N12126 1912 30 WP MM NOT_NAMED 1912-07-22 04:00:00 NR 19.4000 115.500 main 347 343 __________O___ -1 19.4000 115.500 3 4 291
1912200N12126 1912 30 WP MM NOT_NAMED 1912-07-22 06:00:00 NR 19.4479 115.350 main 343 323 __________P___ -1 19.4479 115.350 3 5 285
1912200N12126 1912 30 WP MM NOT_NAMED 1912-07-22 09:00:00 NR 19.5006 115.107 main 323 317 __________P___ -1 19.5006 115.107 3 5 281
1912200N12126 1912 30 WP MM NOT_NAMED 1912-07-22 12:00:00 NR 19.5417 114.849 main 317 303 __________P___ -1 19.5417 114.849 3 5 280
1912200N12126 1912 30 WP MM NOT_NAMED 1912-07-22 15:00:00 NR 19.5837 114.587 main 303 300 __________P___ -1 19.5837 114.587 3 5 280
1912200N12126 1912 30 WP MM NOT_NAMED 1912-07-22 16:00:00 NR 19.6000 114.500 main 300 290 __________O___ -1 19.6000 114.500 4 5 285
1912200N12126 1912 30 WP MM NOT_NAMED 1912-07-22 18:00:00 NR 19.6495 114.331 main 290 271 __________P___ -1 19.6495 114.331 4 5 288
1912200N12126 1912 30 WP MM NOT_NAMED 1912-07-22 21:00:00 NR 19.7302 114.077 main 271 249 __________P___ -1 19.7302 114.077 4 5 289
1912200N12126 1912 30 WP MM NOT_NAMED 1912-07-23 00:00:00 NR 19.8103 113.826 main 249 232 __________P___ -1 19.8103 113.826 4 5 288
1912200N12126 1912 30 WP MM NOT_NAMED 1912-07-23 03:00:00 NR 19.8805 113.580 main 232 229 __________P___ -1 19.8805 113.580 4 5 286
1912200N12126 1912 30 WP MM NOT_NAMED 1912-07-23 04:00:00 NR 19.9000 113.500 main 229 224 __________O___ -1 19.9000 113.500 4 5 282
1912200N12126 1912 30 WP MM NOT_NAMED 1912-07-23 06:00:00 NR 19.9280 113.342 main 224 207 __________P___ -1 19.9280 113.342 4 4 279
1912200N12126 1912 30 WP MM NOT_NAMED 1912-07-23 09:00:00 NR 19.9575 113.110 main 207 200 __________P___ -1 19.9575 113.110 4 4 277
1912200N12126 1912 30 WP MM NOT_NAMED 1912-07-23 12:00:00 NR 19.9774 112.887 main 200 183 __________P___ -1 19.9774 112.887 4 4 275
1912200N12126 1912 30 WP MM NOT_NAMED 1912-07-23 15:00:00 NR 19.9941 112.670 main 183 173 __________P___ -1 19.9941 112.670 4 4 275
1912200N12126 1912 30 WP MM NOT_NAMED 1912-07-23 16:00:00 NR 20.0000 112.600 main 173 163 __________O___ -1 20.0000 112.600 4 3 276
1912200N12126 1912 30 WP MM NOT_NAMED 1912-07-23 18:00:00 NR 20.0107 112.508 main 163 153 __________P___ -1 20.0107 112.508 4 3 277
1912200N12126 1912 30 WP MM NOT_NAMED 1912-07-23 21:00:00 NR 20.0268 112.377 main 153 133 __________P___ -1 20.0268 112.377 4 3 278
1912200N12126 1912 30 WP MM NOT_NAMED 1912-07-24 00:00:00 NR 20.0491 112.203 main 133 106 __________P___ -1 20.0491 112.203 4 4 278
1912200N12126 1912 30 WP MM NOT_NAMED 1912-07-24 03:00:00 NR 20.0843 111.926 main 106 96 __________P___ -1 20.0843 111.926 4 6 278
1912200N12126 1912 30 WP MM NOT_NAMED 1912-07-24 04:00:00 NR 20.1000 111.800 main 96 66 __________O___ -1 20.1000 111.800 4 9 277
1912200N12126 1912 30 WP MM NOT_NAMED 1912-07-24 06:00:00 NR 20.1392 111.472 main 66 23 __________P___ -1 20.1392 111.472 4 11 277
1912200N12126 1912 30 WP MM NOT_NAMED 1912-07-24 09:00:00 NR 20.2102 110.867 main 23 0 __________P___ -1 20.2102 110.867 4 12 277
1912200N12126 1912 30 WP MM NOT_NAMED 1912-07-24 12:00:00 NR 20.2900 110.172 main 0 0 __________P___ -1 20.2900 110.172 4 13 277
1912200N12126 1912 30 WP MM NOT_NAMED 1912-07-24 15:00:00 NR 20.3727 109.442 main 43 43 __________P___ -1 20.3727 109.442 4 14 277
1912200N12126 1912 30 WP MM NOT_NAMED 1912-07-24 16:00:00 NR 20.4000 109.200 main 63 63 __________O___ -1 20.4000 109.200 4 14 277
1912200N12126 1912 30 WP MM NOT_NAMED 1912-07-24 18:00:00 NR 20.4534 108.726 main 100 83 __________P___ -1 20.4534 108.726 4 13 277
1912200N12126 1912 30 WP MM NOT_NAMED 1912-07-24 21:00:00 NR 20.5307 108.039 main 83 39 __________P___ -1 20.5307 108.039 4 13 277
1912200N12126 1912 30 WP MM NOT_NAMED 1912-07-25 00:00:00 NR 20.6050 107.373 main 39 0 __________P___ -1 20.6050 107.373 4 12 277
1912200N12126 1912 30 WP MM NOT_NAMED 1912-07-25 03:00:00 NR 20.6767 106.717 main 0 0 __________P___ -1 20.6767 106.717 4 12 277
1912200N12126 1912 30 WP MM NOT_NAMED 1912-07-25 04:00:00 NR 20.7000 106.500 main 0 __________O___ -1 20.7000 106.500 4 12 277

Digital Typhoon Data and Search

About IBTrACS Database

This database is a web-friendly format of International Best Track Archive for Climate Stewardship (IBTrACS), a global best track data archive curated by NOAA dating back to 1842.

Updated: 2021-12-03